Time;durP1;ratioP1;P1;durP2;ratioP2;P2;SDS_P1;SDS_P2;PMS_P1;PMS_P2;Temp;Humidity;BMP_temperature;BMP_pressure;BME280_temperature;BME280_humidity;BME280_pressure;Samples;Min_cycle;Max_cycle;Signal;HPM_P1;HPM_P2
2023/08/20 00:01:26;;;;;;;1.05;0.43;;;24.40;48.70;;;;;;5033134;28;20026;-68
2023/08/20 00:03:55;;;;;;;0.70;0.40;;;24.20;48.50;;;;;;5031670;28;20383;-69
2023/08/20 00:06:23;;;;;;;0.85;0.50;;;24.50;49.00;;;;;;5042192;28;20101;-69
2023/08/20 00:08:51;;;;;;;0.95;0.43;;;25.30;45.30;;;;;;5053079;28;20039;-68
2023/08/20 00:11:18;;;;;;;1.13;0.60;;;25.30;45.80;;;;;;5053107;28;20064;-70
2023/08/20 00:13:46;;;;;;;1.42;0.70;;;25.00;46.00;;;;;;5039853;28;20121;-70
2023/08/20 00:16:14;;;;;;;1.42;0.80;;;24.70;48.00;;;;;;5032926;28;20116;-70
2023/08/20 00:18:41;;;;;;;0.90;0.60;;;24.70;47.70;;;;;;5032738;28;20064;-70
2023/08/20 00:21:09;;;;;;;0.77;0.60;;;25.60;46.80;;;;;;5032825;28;20478;-70
2023/08/20 00:23:37;;;;;;;2.08;0.70;;;25.70;47.10;;;;;;5033472;28;20026;-69
2023/08/20 00:26:05;;;;;;;0.82;0.60;;;25.80;44.70;;;;;;5032787;28;20021;-70
2023/08/20 00:28:38;;;;;;;1.17;0.60;;;25.70;46.30;;;;;;5032855;28;20037;-70
2023/08/20 00:31:05;;;;;;;1.27;0.40;;;25.90;45.60;;;;;;5048078;28;20370;-69
2023/08/20 00:33:33;;;;;;;1.38;0.70;;;26.50;43.70;;;;;;5052232;28;20127;-68
2023/08/20 00:36:00;;;;;;;1.95;0.50;;;26.20;43.20;;;;;;5052890;28;20108;-69
2023/08/20 00:38:28;;;;;;;1.00;0.50;;;25.50;46.40;;;;;;5052609;28;20025;-69
2023/08/20 00:40:55;;;;;;;0.50;0.50;;;25.50;46.50;;;;;;5038157;28;20060;-69
2023/08/20 00:43:22;;;;;;;0.82;0.50;;;26.10;45.80;;;;;;5032407;28;20078;-70
2023/08/20 00:45:50;;;;;;;1.38;0.65;;;26.60;44.50;;;;;;5032328;28;20034;-69
2023/08/20 00:48:18;;;;;;;2.13;0.70;;;26.40;44.40;;;;;;5040845;28;20549;-69
2023/08/20 00:50:46;;;;;;;1.00;0.50;;;26.20;44.10;;;;;;5052605;28;20074;-69
2023/08/20 00:53:15;;;;;;;1.38;0.73;;;25.90;44.10;;;;;;5052282;28;20433;-71
2023/08/20 00:55:46;;;;;;;0.95;0.40;;;25.90;44.60;;;;;;5052235;28;20029;-70
2023/08/20 00:58:14;;;;;;;2.25;0.43;;;26.20;44.00;;;;;;5035418;28;20029;-69
2023/08/20 01:00:42;;;;;;;0.50;0.50;;;26.10;43.20;;;;;;5032339;28;20032;-68
2023/08/20 01:03:09;;;;;;;0.57;0.40;;;25.80;43.10;;;;;;5032296;28;20037;-69
2023/08/20 01:05:47;;;;;;;0.80;0.55;;;25.90;44.50;;;;;;5051645;28;20039;-69
2023/08/20 01:08:40;;;;;;;0.43;0.30;;;25.60;44.00;;;;;;5052177;28;20450;-69
2023/08/20 01:11:30;;;;;;;0.65;0.47;;;26.00;44.50;;;;;;5052184;28;20104;-69
2023/08/20 01:14:00;;;;;;;0.70;0.50;;;25.40;47.20;;;;;;5051319;28;20017;-69
2023/08/20 01:16:28;;;;;;;0.77;0.45;;;25.50;44.90;;;;;;5052204;28;20071;-69
2023/08/20 01:18:55;;;;;;;0.80;0.60;;;25.30;46.30;;;;;;5051897;28;20385;-71
2023/08/20 01:21:39;;;;;;;0.85;0.52;;;25.30;44.70;;;;;;5049396;28;20017;-70
2023/08/20 01:24:25;;;;;;;1.65;0.50;;;25.70;44.80;;;;;;5051845;28;20021;-70
2023/08/20 01:27:11;;;;;;;0.40;0.40;;;25.50;44.50;;;;;;5052168;28;20077;-71
2023/08/20 01:29:39;;;;;;;0.75;0.50;;;25.90;44.20;;;;;;5051701;28;20021;-71
2023/08/20 01:32:08;;;;;;;1.27;0.50;;;25.00;44.10;;;;;;5051088;28;20025;-70
2023/08/20 01:34:35;;;;;;;1.48;0.80;;;24.40;45.10;;;;;;5051897;28;20032;-70
2023/08/20 01:37:03;;;;;;;0.65;0.35;;;24.70;45.90;;;;;;5051885;28;20521;-71
2023/08/20 01:39:30;;;;;;;0.50;0.40;;;25.50;46.70;;;;;;5032465;28;20017;-69
2023/08/20 01:41:58;;;;;;;1.23;0.40;;;26.20;43.90;;;;;;5032034;28;20444;-69
2023/08/20 01:44:26;;;;;;;0.47;0.40;;;26.20;42.10;;;;;;5031778;28;20024;-71
2023/08/20 01:46:53;;;;;;;0.80;0.50;;;26.20;43.20;;;;;;5032165;28;20041;-70
2023/08/20 01:49:20;;;;;;;0.22;0.20;;;26.60;41.30;;;;;;5032604;28;20026;-71
2023/08/20 01:51:48;;;;;;;0.82;0.30;;;25.80;43.70;;;;;;5031870;28;20017;-71
2023/08/20 01:54:15;;;;;;;0.65;0.40;;;25.90;42.90;;;;;;5032167;28;20056;-71
2023/08/20 01:56:43;;;;;;;0.57;0.40;;;26.10;44.40;;;;;;5052199;28;20120;-72
2023/08/20 01:59:10;;;;;;;2.20;0.60;;;26.80;43.80;;;;;;5052222;28;20450;-72
2023/08/20 02:01:38;;;;;;;0.60;0.30;;;27.20;42.30;;;;;;5052149;28;20103;-70
2023/08/20 02:04:05;;;;;;;0.52;0.32;;;27.50;43.10;;;;;;5054479;28;20124;-70
2023/08/20 02:06:32;;;;;;;1.27;0.30;;;28.00;41.40;;;;;;5036519;28;20080;-72
2023/08/20 02:09:00;;;;;;;0.90;0.50;;;27.90;41.00;;;;;;5035402;28;20025;-71
2023/08/20 02:11:29;;;;;;;1.30;0.57;;;27.40;40.80;;;;;;5037355;28;20542;-72
2023/08/20 02:13:56;;;;;;;0.85;0.43;;;27.10;40.70;;;;;;5055334;28;20198;-71
2023/08/20 02:16:23;;;;;;;1.02;0.55;;;26.10;41.60;;;;;;5055202;28;20041;-71
2023/08/20 02:18:51;;;;;;;0.80;0.47;;;25.30;43.10;;;;;;5051809;28;20017;-71
2023/08/20 02:21:18;;;;;;;1.02;0.63;;;25.40;42.90;;;;;;5035769;28;20025;-71
2023/08/20 02:23:46;;;;;;;0.85;0.43;;;25.50;43.90;;;;;;5035040;28;20493;-72
2023/08/20 02:26:14;;;;;;;0.73;0.40;;;25.70;42.70;;;;;;5035155;28;20119;-71
2023/08/20 02:28:42;;;;;;;0.40;0.30;;;25.10;42.40;;;;;;5041545;28;20125;-71
2023/08/20 02:31:09;;;;;;;1.27;0.50;;;25.20;42.90;;;;;;5055043;28;20115;-70
2023/08/20 02:33:37;;;;;;;0.85;0.40;;;25.70;43.10;;;;;;5054782;28;20016;-71
2023/08/20 02:36:04;;;;;;;1.13;0.35;;;25.90;43.30;;;;;;5054898;28;20037;-70
2023/08/20 02:38:32;;;;;;;0.45;0.40;;;26.20;43.20;;;;;;5053687;28;20030;-72
2023/08/20 02:40:59;;;;;;;0.73;0.40;;;26.20;42.60;;;;;;5054957;28;20021;-69
2023/08/20 02:43:26;;;;;;;0.63;0.50;;;26.20;42.10;;;;;;5055020;28;20073;-69
2023/08/20 02:45:54;;;;;;;2.35;0.40;;;26.50;42.40;;;;;;5048490;28;20478;-69
2023/08/20 02:48:21;;;;;;;0.60;0.50;;;26.80;42.70;;;;;;5034645;28;20083;-70
2023/08/20 02:50:48;;;;;;;0.45;0.43;;;27.10;42.50;;;;;;5034420;28;20413;-70
2023/08/20 02:53:16;;;;;;;0.52;0.45;;;27.30;41.30;;;;;;5034668;28;20022;-70
2023/08/20 02:55:43;;;;;;;0.90;0.40;;;27.40;42.70;;;;;;5035162;28;20089;-69
2023/08/20 02:58:10;;;;;;;0.60;0.40;;;27.30;40.10;;;;;;5034827;28;20395;-70
2023/08/20 03:00:38;;;;;;;0.98;0.52;;;27.10;40.50;;;;;;5034752;28;20418;-70
2023/08/20 03:03:08;;;;;;;0.57;0.50;;;27.00;42.80;;;;;;5041749;28;20037;-70
2023/08/20 03:05:36;;;;;;;0.90;0.40;;;27.20;44.40;;;;;;5054017;28;20025;-71
2023/08/20 03:08:06;;;;;;;0.75;0.38;;;27.40;42.40;;;;;;5054455;28;20036;-70
2023/08/20 03:10:34;;;;;;;1.17;0.60;;;27.50;40.40;;;;;;5054286;28;20024;-70
2023/08/20 03:13:03;;;;;;;1.23;0.50;;;27.40;41.50;;;;;;5053495;28;20025;-71
2023/08/20 03:15:30;;;;;;;0.95;0.30;;;27.40;40.80;;;;;;5051370;28;20025;-70
2023/08/20 03:17:58;;;;;;;1.23;0.40;;;27.60;39.70;;;;;;5053801;28;20032;-70
2023/08/20 03:20:26;;;;;;;0.60;0.50;;;27.50;40.90;;;;;;5042276;28;20029;-70
2023/08/20 03:22:53;;;;;;;1.20;0.38;;;27.70;42.50;;;;;;5034200;28;20029;-70
2023/08/20 03:25:20;;;;;;;0.22;0.20;;;27.30;40.20;;;;;;5033920;28;20021;-71
2023/08/20 03:27:48;;;;;;;1.27;0.35;;;27.20;41.20;;;;;;5034030;28;20081;-70
2023/08/20 03:30:15;;;;;;;1.25;0.32;;;27.60;45.40;;;;;;5033317;28;20030;-71
2023/08/20 03:32:42;;;;;;;1.40;0.40;;;27.60;45.30;;;;;;5033424;28;20075;-70
2023/08/20 03:35:10;;;;;;;1.92;0.32;;;27.30;43.70;;;;;;5033911;28;20064;-71
2023/08/20 03:37:37;;;;;;;0.65;0.40;;;27.50;46.60;;;;;;5045519;28;20180;-70
2023/08/20 03:40:08;;;;;;;0.45;0.30;;;27.50;45.40;;;;;;5053554;28;20490;-70
2023/08/20 03:42:35;;;;;;;0.60;0.28;;;26.90;45.50;;;;;;5053528;28;20082;-70
2023/08/20 03:45:02;;;;;;;1.02;0.40;;;26.60;47.20;;;;;;5053341;28;20053;-70
2023/08/20 03:47:30;;;;;;;1.13;0.40;;;26.40;46.80;;;;;;5052990;28;20025;-70
2023/08/20 03:49:57;;;;;;;0.43;0.43;;;26.10;41.30;;;;;;5053986;28;20056;-70
2023/08/20 03:52:24;;;;;;;0.50;0.35;;;25.80;48.90;;;;;;5053388;28;20025;-71
2023/08/20 03:54:52;;;;;;;0.25;0.20;;;25.40;47.70;;;;;;5039469;28;20075;-70
2023/08/20 03:57:19;;;;;;;1.23;0.30;;;25.40;48.10;;;;;;5033480;28;20038;-71
2023/08/20 03:59:47;;;;;;;1.88;0.30;;;25.50;48.10;;;;;;5033364;28;20025;-70
2023/08/20 04:02:15;;;;;;;0.28;0.20;;;25.40;41.60;;;;;;5033399;28;20079;-70
2023/08/20 04:04:42;;;;;;;0.68;0.40;;;25.70;47.70;;;;;;5033966;28;20021;-69
2023/08/20 04:07:10;;;;;;;0.55;0.30;;;25.80;48.00;;;;;;5033308;28;20512;-69
2023/08/20 04:09:38;;;;;;;2.05;0.50;;;25.60;48.50;;;;;;5033175;28;20029;-70
2023/08/20 04:12:06;;;;;;;0.75;0.43;;;25.50;44.20;;;;;;5048393;28;20032;-70
2023/08/20 04:14:33;;;;;;;0.32;0.20;;;25.60;41.90;;;;;;5051825;28;20162;-70
2023/08/20 04:17:01;;;;;;;0.32;0.20;;;26.00;47.50;;;;;;5051703;28;20497;-69
2023/08/20 04:19:28;;;;;;;0.90;0.40;;;25.90;48.20;;;;;;5044135;28;20025;-70
2023/08/20 04:21:55;;;;;;;0.43;0.38;;;26.00;47.40;;;;;;5046737;28;20121;-70
2023/08/20 04:24:23;;;;;;;0.22;0.20;;;25.90;47.20;;;;;;5051049;28;20021;-70
2023/08/20 04:26:50;;;;;;;0.20;0.20;;;25.70;43.20;;;;;;5049262;28;20114;-70
2023/08/20 04:29:18;;;;;;;2.67;0.75;;;25.70;47.50;;;;;;5035124;28;20492;-70
2023/08/20 04:31:46;;;;;;;0.60;0.30;;;25.50;47.60;;;;;;5032932;28;20038;-70
2023/08/20 04:34:13;;;;;;;0.57;0.32;;;25.50;48.30;;;;;;5032870;28;20025;-70
2023/08/20 04:36:40;;;;;;;1.20;0.30;;;25.10;47.20;;;;;;5032735;28;20029;-72
2023/08/20 04:39:08;;;;;;;0.35;0.20;;;24.80;48.00;;;;;;5033091;28;20017;-71
2023/08/20 04:41:35;;;;;;;0.70;0.30;;;24.70;48.60;;;;;;5032773;28;20026;-70
2023/08/20 04:44:02;;;;;;;0.70;0.25;;;24.60;43.20;;;;;;5032778;28;20060;-71
2023/08/20 04:46:30;;;;;;;0.50;0.20;;;24.70;48.90;;;;;;5051345;28;20081;-70
2023/08/20 04:48:57;;;;;;;0.60;0.32;;;24.80;47.50;;;;;;5052368;28;20029;-70
2023/08/20 04:51:25;;;;;;;0.30;0.20;;;24.70;42.40;;;;;;5052436;28;20025;-71
2023/08/20 04:53:52;;;;;;;0.75;0.25;;;24.70;46.70;;;;;;5051949;28;20033;-71
2023/08/20 04:56:19;;;;;;;0.43;0.40;;;24.90;46.90;;;;;;5033595;28;20041;-72
2023/08/20 04:58:47;;;;;;;0.17;0.10;;;24.70;47.60;;;;;;5032757;28;20040;-71
2023/08/20 05:01:14;;;;;;;0.45;0.30;;;24.60;43.50;;;;;;5032625;28;20033;-71
2023/08/20 05:03:41;;;;;;;1.45;0.30;;;24.40;48.30;;;;;;5052693;28;20365;-71
2023/08/20 05:06:09;;;;;;;0.35;0.35;;;24.00;46.10;;;;;;5052102;28;20029;-71
2023/08/20 05:08:36;;;;;;;0.70;0.30;;;23.60;43.70;;;;;;5050964;28;20421;-71
2023/08/20 05:11:03;;;;;;;0.82;0.40;;;23.60;44.90;;;;;;5052296;28;20031;-71
2023/08/20 05:13:31;;;;;;;0.47;0.20;;;23.40;50.60;;;;;;5051263;28;20021;-70
2023/08/20 05:15:58;;;;;;;0.70;0.38;;;23.00;44.40;;;;;;5050729;28;20103;-71
2023/08/20 05:18:26;;;;;;;0.52;0.20;;;22.60;45.40;;;;;;5048366;28;20464;-71
2023/08/20 05:20:54;;;;;;;0.68;0.47;;;23.00;50.40;;;;;;5030559;28;20033;-71
2023/08/20 05:23:21;;;;;;;0.70;0.40;;;23.10;46.20;;;;;;5032460;28;20083;-71
2023/08/20 05:25:48;;;;;;;0.22;0.22;;;23.20;45.10;;;;;;5032322;28;20033;-72
2023/08/20 05:28:16;;;;;;;1.45;0.35;;;23.30;45.10;;;;;;5032595;28;20403;-69
2023/08/20 05:30:43;;;;;;;0.80;0.30;;;23.30;48.70;;;;;;5030700;28;20029;-70
2023/08/20 05:33:10;;;;;;;0.40;0.40;;;23.20;44.00;;;;;;5032107;28;20029;-69
2023/08/20 05:35:38;;;;;;;0.40;0.20;;;23.30;44.90;;;;;;5035192;28;20033;-70
2023/08/20 05:38:05;;;;;;;0.65;0.30;;;23.50;47.10;;;;;;5051774;28;20032;-72
2023/08/20 05:40:32;;;;;;;0.65;0.22;;;23.60;44.60;;;;;;5056039;28;20043;-71
2023/08/20 05:43:00;;;;;;;0.65;0.35;;;23.70;44.40;;;;;;5055693;28;20028;-70
2023/08/20 05:45:27;;;;;;;1.92;0.30;;;23.70;44.40;;;;;;5054620;28;20025;-70
2023/08/20 05:47:54;;;;;;;0.43;0.20;;;23.40;44.60;;;;;;5055522;28;20059;-70
2023/08/20 05:50:22;;;;;;;1.05;0.30;;;23.20;44.40;;;;;;5056016;28;20021;-70
2023/08/20 05:52:49;;;;;;;0.50;0.20;;;23.00;44.70;;;;;;5051238;28;20064;-71
2023/08/20 05:55:16;;;;;;;0.50;0.30;;;22.90;44.70;;;;;;5055693;28;20021;-70
2023/08/20 05:57:44;;;;;;;1.23;0.30;;;22.80;45.50;;;;;;5055579;28;20037;-71
2023/08/20 06:00:11;;;;;;;0.80;0.20;;;22.80;45.40;;;;;;5055589;28;20096;-70
2023/08/20 06:02:39;;;;;;;0.60;0.30;;;22.80;45.70;;;;;;5054402;28;20021;-70
2023/08/20 06:05:06;;;;;;;0.43;0.30;;;22.80;46.00;;;;;;5055534;28;20107;-70
2023/08/20 06:07:34;;;;;;;0.45;0.30;;;22.80;45.60;;;;;;5055732;28;20060;-70
2023/08/20 06:10:01;;;;;;;0.80;0.30;;;22.80;45.00;;;;;;5048376;28;20463;-70
2023/08/20 06:12:28;;;;;;;0.57;0.40;;;22.70;45.50;;;;;;5035286;28;20025;-70
2023/08/20 06:14:56;;;;;;;0.73;0.50;;;22.70;45.30;;;;;;5035144;28;20025;-70
2023/08/20 06:17:23;;;;;;;1.13;0.50;;;22.70;45.90;;;;;;5035229;28;20034;-70
2023/08/20 06:19:50;;;;;;;2.08;0.50;;;22.60;45.80;;;;;;5040536;28;20017;-69
2023/08/20 06:22:18;;;;;;;0.32;0.20;;;22.50;46.20;;;;;;5055209;28;20021;-69
2023/08/20 06:24:45;;;;;;;0.40;0.30;;;22.50;46.30;;;;;;5055047;28;20075;-69
2023/08/20 06:27:12;;;;;;;0.55;0.25;;;22.40;46.40;;;;;;5046075;28;20053;-69
2023/08/20 06:29:40;;;;;;;0.80;0.30;;;22.40;46.70;;;;;;5033260;28;20025;-69
2023/08/20 06:32:07;;;;;;;1.05;0.40;;;22.40;46.30;;;;;;5035191;28;20034;-70
2023/08/20 06:34:37;;;;;;;0.65;0.30;;;22.30;46.60;;;;;;5035142;28;20549;-69
2023/08/20 06:37:05;;;;;;;1.05;0.25;;;22.30;46.60;;;;;;5034085;28;20033;-70
2023/08/20 06:39:32;;;;;;;1.00;0.50;;;22.10;47.00;;;;;;5035044;28;20033;-70
2023/08/20 06:41:59;;;;;;;1.02;0.43;;;22.00;47.40;;;;;;5034566;28;20025;-70
2023/08/20 06:44:27;;;;;;;0.30;0.30;;;21.90;48.20;;;;;;5044843;28;20083;-70
2023/08/20 06:46:54;;;;;;;1.63;0.50;;;21.80;48.50;;;;;;5053413;28;20025;-69
2023/08/20 06:49:21;;;;;;;0.70;0.55;;;21.80;49.40;;;;;;5053027;28;20463;-70
2023/08/20 06:51:48;;;;;;;1.98;0.50;;;21.80;49.00;;;;;;5053221;28;20025;-70
2023/08/20 06:54:16;;;;;;;1.05;0.57;;;21.80;48.70;;;;;;5035122;28;20459;-70
2023/08/20 06:56:43;;;;;;;2.00;0.88;;;21.60;49.00;;;;;;5034163;28;20510;-69
2023/08/20 06:59:11;;;;;;;2.35;1.40;;;21.70;49.00;;;;;;5034417;28;20021;-70
2023/08/20 07:01:38;;;;;;;2.95;1.70;;;21.80;48.80;;;;;;5046253;28;20451;-70
2023/08/20 07:04:06;;;;;;;2.85;1.38;;;21.60;49.20;;;;;;5054380;28;20106;-70
2023/08/20 07:06:33;;;;;;;3.42;1.27;;;21.40;50.90;;;;;;5054303;28;20068;-70
2023/08/20 07:09:01;;;;;;;2.47;1.10;;;21.30;51.40;;;;;;5054243;28;20021;-69
2023/08/20 07:11:28;;;;;;;1.20;0.88;;;21.30;51.20;;;;;;5051763;28;20051;-70
2023/08/20 07:13:55;;;;;;;1.50;1.08;;;21.20;50.60;;;;;;5054262;28;20028;-70
2023/08/20 07:16:23;;;;;;;2.25;1.10;;;21.30;50.20;;;;;;5054077;28;20144;-70
2023/08/20 07:18:50;;;;;;;3.55;1.38;;;21.30;50.10;;;;;;5039756;28;20033;-70
2023/08/20 07:21:17;;;;;;;2.70;1.00;;;21.20;50.80;;;;;;5034076;28;20022;-69
2023/08/20 07:23:45;;;;;;;1.77;0.63;;;21.00;51.30;;;;;;5032494;28;20026;-69
2023/08/20 07:26:12;;;;;;;2.60;0.88;;;21.00;51.60;;;;;;5035012;28;20108;-69
2023/08/20 07:29:01;;;;;;;0.70;0.50;;;20.90;52.10;;;;;;5045889;28;20112;-69
2023/08/20 07:31:31;;;;;;;1.90;0.82;;;20.80;52.30;;;;;;5052346;28;20058;-69
2023/08/20 07:34:01;;;;;;;7.30;0.60;;;20.80;52.00;;;;;;5053583;28;20422;-68
2023/08/20 07:36:28;;;;;;;2.35;0.70;;;21.00;52.40;;;;;;5034106;28;20056;-70
2023/08/20 07:38:56;;;;;;;2.67;0.88;;;20.80;52.40;;;;;;5034076;28;20044;-70
2023/08/20 07:41:23;;;;;;;1.15;0.47;;;20.40;51.10;;;;;;5033667;28;20053;-70
2023/08/20 07:43:51;;;;;;;1.75;0.40;;;20.10;51.50;;;;;;5033822;28;20060;-68
2023/08/20 07:46:18;;;;;;;0.93;0.38;;;19.80;52.10;;;;;;5034011;28;20080;-69
2023/08/20 07:48:46;;;;;;;1.10;0.60;;;19.70;52.40;;;;;;5033375;28;20036;-69
2023/08/20 07:51:13;;;;;;;1.42;0.40;;;19.50;52.40;;;;;;5034180;28;20026;-68
2023/08/20 07:53:40;;;;;;;1.02;0.60;;;19.50;52.70;;;;;;5033777;28;20115;-71
2023/08/20 07:56:08;;;;;;;0.43;0.35;;;19.40;52.40;;;;;;5033759;28;20474;-69
2023/08/20 07:58:36;;;;;;;2.45;0.35;;;19.20;52.90;;;;;;5033501;28;20025;-68
2023/08/20 08:01:03;;;;;;;1.92;0.55;;;19.20;53.20;;;;;;5032885;28;20029;-68
2023/08/20 08:03:30;;;;;;;3.22;0.90;;;19.00;53.10;;;;;;5032219;28;20030;-68
2023/08/20 08:05:58;;;;;;;2.28;0.60;;;19.00;53.20;;;;;;5033488;28;20506;-69
2023/08/20 08:08:25;;;;;;;1.90;0.60;;;18.90;53.70;;;;;;5035090;28;20057;-70
2023/08/20 08:10:52;;;;;;;1.58;0.80;;;18.70;53.50;;;;;;5053121;28;20374;-70
2023/08/20 08:13:22;;;;;;;1.70;0.60;;;18.70;53.20;;;;;;5053022;28;20029;-70
2023/08/20 08:15:50;;;;;;;2.25;0.52;;;18.70;53.70;;;;;;5052838;28;20028;-69
2023/08/20 08:18:18;;;;;;;2.22;0.60;;;18.70;53.60;;;;;;5044125;28;20025;-70
2023/08/20 08:20:45;;;;;;;1.20;0.60;;;18.60;54.10;;;;;;5051816;28;20417;-69
2023/08/20 08:23:12;;;;;;;0.95;0.50;;;18.60;54.50;;;;;;5052919;28;20017;-69
2023/08/20 08:25:41;;;;;;;3.22;2.17;;;18.50;55.40;;;;;;5048773;28;20525;-69
2023/08/20 08:28:08;;;;;;;5.50;3.47;;;18.40;55.80;;;;;;5032674;28;20510;-69
2023/08/20 08:30:36;;;;;;;6.03;5.32;;;18.30;56.50;;;;;;5032502;28;20471;-69
2023/08/20 08:33:03;;;;;;;13.23;11.23;;;18.30;56.80;;;;;;5031539;28;20027;-69
2023/08/20 08:35:30;;;;;;;9.32;6.25;;;18.20;57.30;;;;;;5033071;28;20025;-69
2023/08/20 08:37:58;;;;;;;4.97;3.33;;;18.20;57.90;;;;;;5033004;28;20417;-69
2023/08/20 08:40:30;;;;;;;4.18;2.90;;;18.40;57.80;;;;;;5032698;28;20021;-69
2023/08/20 08:42:58;;;;;;;3.50;1.80;;;18.40;58.30;;;;;;5038565;28;20037;-69
2023/08/20 08:45:27;;;;;;;5.38;1.83;;;18.30;58.20;;;;;;5052648;28;20029;-69
2023/08/20 08:47:55;;;;;;;1.88;1.27;;;18.20;58.40;;;;;;5052672;28;20021;-69
2023/08/20 08:50:23;;;;;;;4.53;2.10;;;18.20;58.70;;;;;;5052462;28;20074;-69
2023/08/20 08:52:52;;;;;;;6.03;2.95;;;18.20;59.00;;;;;;5038449;28;20029;-69
2023/08/20 08:55:20;;;;;;;9.63;4.80;;;18.10;60.10;;;;;;5031026;28;20029;-69
2023/08/20 08:57:47;;;;;;;8.65;4.65;;;18.10;60.00;;;;;;5032071;28;20041;-68
2023/08/20 09:00:15;;;;;;;10.00;3.47;;;18.10;59.90;;;;;;5041077;28;20032;-68
2023/08/20 09:02:42;;;;;;;6.22;2.50;;;18.00;60.00;;;;;;5052195;28;20054;-68
2023/08/20 09:05:11;;;;;;;2.03;1.10;;;18.00;60.10;;;;;;5052182;28;20073;-68
2023/08/20 09:07:45;;;;;;;2.85;1.45;;;18.10;60.10;;;;;;5052059;28;20105;-68
2023/08/20 09:10:12;;;;;;;2.63;1.60;;;18.00;60.00;;;;;;5050883;28;20025;-69
2023/08/20 09:12:40;;;;;;;1.77;0.98;;;17.90;60.10;;;;;;5051174;28;20036;-69
2023/08/20 09:15:11;;;;;;;2.13;0.95;;;17.90;59.80;;;;;;5052168;28;20036;-68
2023/08/20 09:17:41;;;;;;;2.80;1.00;;;17.90;61.00;;;;;;5043467;28;20175;-69
2023/08/20 09:20:09;;;;;;;1.98;0.82;;;17.80;60.80;;;;;;5052002;28;20021;-69
2023/08/20 09:22:40;;;;;;;1.73;0.70;;;18.10;59.70;;;;;;5051054;28;20021;-69
2023/08/20 09:25:08;;;;;;;2.10;1.00;;;17.90;59.10;;;;;;5051120;28;20025;-69
2023/08/20 09:27:41;;;;;;;1.85;0.98;;;17.80;60.60;;;;;;5039713;28;20057;-69
2023/08/20 09:30:10;;;;;;;2.92;1.23;;;17.70;62.20;;;;;;5031291;28;20025;-68
2023/08/20 09:32:37;;;;;;;2.15;1.10;;;17.60;62.60;;;;;;5031259;28;20033;-71
2023/08/20 09:35:05;;;;;;;4.47;1.27;;;17.80;60.30;;;;;;5046297;28;20025;-69
2023/08/20 09:37:34;;;;;;;2.60;1.20;;;17.60;60.60;;;;;;5051219;28;20037;-69
2023/08/20 09:40:02;;;;;;;1.88;1.35;;;17.40;61.30;;;;;;5051280;28;20025;-69
2023/08/20 09:42:33;;;;;;;4.07;1.40;;;17.20;61.90;;;;;;5051111;28;20029;-69
2023/08/20 09:45:04;;;;;;;3.17;1.38;;;17.10;62.70;;;;;;5050285;28;20051;-67
2023/08/20 09:47:35;;;;;;;4.53;2.20;;;17.00;64.10;;;;;;5050678;28;20086;-68
2023/08/20 09:50:05;;;;;;;6.40;2.80;;;16.90;64.00;;;;;;5051296;28;20021;-69
2023/08/20 09:52:43;;;;;;;7.63;3.50;;;16.90;64.20;;;;;;5043552;28;20108;-69
2023/08/20 09:55:17;;;;;;;5.70;2.58;;;16.70;64.50;;;;;;5051093;28;20048;-68
2023/08/20 09:57:47;;;;;;;4.53;2.65;;;16.70;65.40;;;;;;5050867;28;20052;-68
2023/08/20 10:00:15;;;;;;;4.18;2.17;;;16.60;67.10;;;;;;5050127;28;20478;-68
2023/08/20 10:02:43;;;;;;;5.95;2.38;;;16.50;66.90;;;;;;5031307;28;20022;-69
2023/08/20 10:05:12;;;;;;;5.38;2.30;;;16.40;66.60;;;;;;5031176;28;20035;-69
2023/08/20 10:07:40;;;;;;;4.78;2.42;;;16.50;66.60;;;;;;5031373;28;20033;-70
2023/08/20 10:10:14;;;;;;;4.47;2.15;;;16.40;66.60;;;;;;5031072;28;20109;-70
2023/08/20 10:12:43;;;;;;;4.70;2.30;;;16.50;66.70;;;;;;5030810;28;20022;-69
2023/08/20 10:15:12;;;;;;;5.18;2.00;;;16.70;65.50;;;;;;5030919;28;20386;-70
2023/08/20 10:17:42;;;;;;;3.58;2.00;;;16.60;65.40;;;;;;5038541;28;20399;-68
2023/08/20 10:20:13;;;;;;;6.07;2.30;;;16.50;66.00;;;;;;5030893;28;20448;-68
2023/08/20 10:22:42;;;;;;;4.18;1.80;;;16.50;66.90;;;;;;5030912;28;20030;-68
2023/08/20 10:25:22;;;;;;;3.55;1.92;;;16.40;67.80;;;;;;5041334;28;20059;-68
2023/08/20 10:27:49;;;;;;;3.35;1.73;;;16.30;67.60;;;;;;5052705;28;20060;-68
2023/08/20 10:30:25;;;;;;;3.72;1.45;;;16.30;67.50;;;;;;5034363;28;20031;-69
2023/08/20 10:32:54;;;;;;;3.10;1.50;;;16.20;68.20;;;;;;5035577;28;20074;-68
2023/08/20 10:35:28;;;;;;;3.95;1.90;;;16.20;68.00;;;;;;5043455;28;20112;-69
2023/08/20 10:38:08;;;;;;;2.45;1.50;;;16.00;68.60;;;;;;5054490;28;20033;-69
2023/08/20 10:41:08;;;;;;;3.58;1.80;;;16.00;69.40;;;;;;5054122;28;20027;-68
2023/08/20 10:43:45;;;;;;;2.08;1.45;;;15.90;69.40;;;;;;5031426;28;20079;-69
2023/08/20 10:46:17;;;;;;;4.13;2.38;;;15.80;70.10;;;;;;5054364;28;20029;-69
2023/08/20 10:48:56;;;;;;;6.95;3.30;;;15.80;71.30;;;;;;5054118;28;20029;-69
2023/08/20 10:51:33;;;;;;;5.28;3.30;;;15.80;71.60;;;;;;5052189;28;20021;-69
2023/08/20 10:54:07;;;;;;;4.20;2.58;;;15.60;71.60;;;;;;5034144;28;20183;-69
2023/08/20 10:56:46;;;;;;;4.47;2.75;;;15.50;72.30;;;;;;5033841;28;20084;-69
2023/08/20 10:59:23;;;;;;;6.90;4.22;;;15.50;72.70;;;;;;5042576;28;20029;-68
2023/08/20 11:01:52;;;;;;;9.27;4.72;;;15.30;73.00;;;;;;5053894;28;20471;-68
2023/08/20 11:04:22;;;;;;;10.80;6.75;;;15.10;74.00;;;;;;5053589;28;20039;-69
2023/08/20 11:06:57;;;;;;;8.57;5.38;;;15.00;75.10;;;;;;5053442;28;20040;-69
2023/08/20 11:09:25;;;;;;;11.55;5.45;;;15.10;75.40;;;;;;5052918;28;20025;-69
2023/08/20 11:11:53;;;;;;;14.07;5.43;;;15.00;75.10;;;;;;5053584;28;20501;-69
2023/08/20 11:14:21;;;;;;;8.80;4.75;;;14.90;75.20;;;;;;5053507;28;20398;-68
2023/08/20 11:16:49;;;;;;;11.65;5.70;;;14.80;75.80;;;;;;5045310;28;20483;-69
2023/08/20 11:19:21;;;;;;;10.27;5.38;;;14.80;76.60;;;;;;5051632;28;20070;-69
2023/08/20 11:21:49;;;;;;;10.57;6.00;;;14.70;76.80;;;;;;5053750;28;20032;-68
2023/08/20 11:24:19;;;;;;;10.77;5.35;;;14.60;77.40;;;;;;5053457;28;20386;-68
2023/08/20 11:26:47;;;;;;;8.45;4.32;;;14.50;77.80;;;;;;5052495;28;20045;-69
2023/08/20 11:29:19;;;;;;;8.73;3.75;;;14.50;78.20;;;;;;5053348;28;20065;-68
2023/08/20 11:31:50;;;;;;;5.28;2.80;;;14.40;78.60;;;;;;5052974;28;20028;-68
2023/08/20 11:34:19;;;;;;;4.82;2.97;;;14.30;78.60;;;;;;5035761;28;20464;-69
2023/08/20 11:36:48;;;;;;;4.22;2.03;;;14.30;79.00;;;;;;5032285;28;20060;-69
2023/08/20 11:39:15;;;;;;;4.07;1.63;;;14.40;79.30;;;;;;5031991;28;20033;-68
2023/08/20 11:41:44;;;;;;;4.95;1.83;;;14.30;78.60;;;;;;5031821;28;20025;-68
2023/08/20 11:44:19;;;;;;;3.40;1.92;;;14.20;78.90;;;;;;5032144;28;20025;-69
2023/08/20 11:46:46;;;;;;;4.40;2.00;;;14.20;78.90;;;;;;5031983;28;20025;-69
2023/08/20 11:49:15;;;;;;;5.90;1.98;;;14.30;79.20;;;;;;5032161;28;20025;-68
2023/08/20 11:51:49;;;;;;;3.72;1.70;;;14.10;79.20;;;;;;5046873;28;20040;-68
2023/08/20 11:54:19;;;;;;;4.60;1.90;;;14.10;79.60;;;;;;5033275;28;20477;-69
2023/08/20 11:56:51;;;;;;;3.45;1.83;;;14.10;79.80;;;;;;5033135;28;20036;-69
2023/08/20 11:59:22;;;;;;;4.45;2.00;;;14.00;80.90;;;;;;5033933;28;20113;-68
2023/08/20 12:02:03;;;;;;;4.65;1.85;;;14.00;80.70;;;;;;5033493;28;20025;-68
2023/08/20 12:04:32;;;;;;;4.82;1.90;;;13.90;80.80;;;;;;5033346;28;20108;-68
2023/08/20 12:07:06;;;;;;;4.03;2.10;;;13.70;81.20;;;;;;5039646;28;20028;-69
2023/08/20 12:09:34;;;;;;;2.70;1.67;;;13.70;81.80;;;;;;5053277;28;20386;-68
2023/08/20 12:12:02;;;;;;;4.93;1.95;;;13.50;82.40;;;;;;5053483;28;20113;-68
2023/08/20 12:14:30;;;;;;;3.45;1.45;;;13.50;82.80;;;;;;5053289;28;20056;-68
2023/08/20 12:16:58;;;;;;;4.60;2.00;;;13.40;83.50;;;;;;5045088;28;20457;-69
2023/08/20 12:19:26;;;;;;;9.25;1.80;;;13.30;84.10;;;;;;5032929;28;20026;-68
2023/08/20 12:21:53;;;;;;;7.88;2.13;;;13.20;84.20;;;;;;5032828;28;20026;-69
2023/08/20 12:24:21;;;;;;;3.83;1.67;;;13.20;84.50;;;;;;5041012;28;20032;-68
2023/08/20 12:26:48;;;;;;;4.82;1.63;;;13.10;84.80;;;;;;5053072;28;20132;-68
2023/08/20 12:29:16;;;;;;;2.65;1.48;;;13.10;85.00;;;;;;5052949;28;20173;-68
2023/08/20 12:31:43;;;;;;;4.85;1.40;;;13.10;86.10;;;;;;5052854;28;20025;-69
2023/08/20 12:34:11;;;;;;;3.35;1.48;;;13.10;85.50;;;;;;5043625;28;20041;-68
2023/08/20 12:36:38;;;;;;;3.65;1.83;;;13.20;90.00;;;;;;5033067;28;20099;-69
2023/08/20 12:39:06;;;;;;;2.38;1.50;;;13.10;85.90;;;;;;5031593;28;20569;-68
2023/08/20 12:41:35;;;;;;;5.22;1.65;;;13.20;88.50;;;;;;5043993;28;20087;-68
2023/08/20 12:44:02;;;;;;;6.30;2.38;;;13.20;90.60;;;;;;5051977;28;20032;-69
2023/08/20 12:46:30;;;;;;;6.25;2.40;;;13.10;91.30;;;;;;5051758;28;20032;-68
2023/08/20 12:48:57;;;;;;;6.43;2.92;;;13.00;91.50;;;;;;5050297;28;20375;-68
2023/08/20 12:51:24;;;;;;;4.38;2.22;;;12.90;91.80;;;;;;5048356;28;20112;-68
2023/08/20 12:53:52;;;;;;;4.63;2.13;;;12.90;92.10;;;;;;5031938;28;20022;-68